createdAt,value
2018-05-12T00:02:09.564Z,88.50
2018-05-12T00:04:37.865Z,88.90
2018-05-12T00:07:06.126Z,87.80
2018-05-12T00:09:34.370Z,87.60
2018-05-12T00:12:03.420Z,88.60
2018-05-12T00:14:31.701Z,88.60
2018-05-12T00:17:00.011Z,88.50
2018-05-12T00:19:28.272Z,88.70
2018-05-12T00:21:56.521Z,88.70
2018-05-12T00:24:24.782Z,88.50
2018-05-12T00:26:53.027Z,89.00
2018-05-12T00:29:22.039Z,89.20
2018-05-12T00:31:50.350Z,89.20
2018-05-12T00:34:18.607Z,89.40
2018-05-12T00:36:46.888Z,90.00
2018-05-12T00:39:15.164Z,89.80
2018-05-12T00:41:43.435Z,90.00
2018-05-12T00:44:11.688Z,90.20
2018-05-12T00:46:39.981Z,90.10
2018-05-12T00:49:08.269Z,89.60
2018-05-12T00:51:36.516Z,89.70
2018-05-12T00:54:04.772Z,90.00
2018-05-12T00:56:33.803Z,90.40
2018-05-12T00:59:02.085Z,90.40
2018-05-12T01:01:30.377Z,90.50
2018-05-12T01:03:58.636Z,90.40
2018-05-12T01:06:26.903Z,90.40
2018-05-12T01:08:55.188Z,90.30
2018-05-12T01:11:23.457Z,90.20
2018-05-12T01:13:51.741Z,90.40
2018-05-12T01:16:20.023Z,90.60
2018-05-12T01:18:48.387Z,90.40
2018-05-12T01:21:16.635Z,90.40
2018-05-12T01:23:44.896Z,90.60
2018-05-12T01:26:13.926Z,90.70
2018-05-12T01:28:42.187Z,90.70
2018-05-12T01:31:10.500Z,90.90
2018-05-12T01:33:38.764Z,90.90
2018-05-12T01:36:07.036Z,91.00
2018-05-12T01:38:35.317Z,90.90
2018-05-12T01:41:03.569Z,90.80
2018-05-12T01:43:31.868Z,90.50
2018-05-12T01:46:00.131Z,90.40
2018-05-12T01:48:28.415Z,90.40
2018-05-12T01:50:56.687Z,90.50
2018-05-12T01:53:24.971Z,90.40
2018-05-12T01:55:53.244Z,90.40
2018-05-12T01:58:21.520Z,90.30
2018-05-12T02:00:49.804Z,90.20
2018-05-12T02:03:18.066Z,90.30
2018-05-12T02:05:46.307Z,90.20
2018-05-12T02:08:14.621Z,90.30
2018-05-12T02:10:42.880Z,90.40
2018-05-12T02:13:11.149Z,90.40
2018-05-12T02:15:39.398Z,90.30
2018-05-12T02:18:08.540Z,90.50
2018-05-12T02:20:39.885Z,90.50
2018-05-12T02:23:08.156Z,90.30
2018-05-12T02:25:36.444Z,90.20
2018-05-12T02:28:04.725Z,90.10
2018-05-12T02:30:32.984Z,90.00
2018-05-12T02:33:01.232Z,90.20
2018-05-12T02:35:29.541Z,90.30
2018-05-12T02:37:57.807Z,90.60
2018-05-12T02:40:26.063Z,90.90
2018-05-12T02:42:54.367Z,91.20
2018-05-12T02:45:22.623Z,91.80
2018-05-12T02:47:50.919Z,92.00
2018-05-12T02:50:19.191Z,92.30
2018-05-12T02:52:47.463Z,92.50
2018-05-12T02:55:15.734Z,92.70
2018-05-12T02:57:43.989Z,92.80
2018-05-12T03:00:12.243Z,92.80
2018-05-12T03:02:41.289Z,93.20
2018-05-12T03:05:09.569Z,93.20
2018-05-12T03:07:37.831Z,93.50
2018-05-12T03:10:06.097Z,93.90
2018-05-12T03:12:34.357Z,94.20
2018-05-12T03:15:02.608Z,94.50
2018-05-12T03:17:31.631Z,94.90
2018-05-12T03:19:59.908Z,94.80
2018-05-12T03:22:29.946Z,94.90
2018-05-12T03:24:58.221Z,94.90
2018-05-12T03:27:26.477Z,94.90
2018-05-12T03:29:54.791Z,94.90
2018-05-12T03:32:23.035Z,94.90
2018-05-12T03:34:51.301Z,95.30
2018-05-12T03:37:19.547Z,94.90
2018-05-12T03:39:48.604Z,94.80
2018-05-12T03:42:16.861Z,94.80
2018-05-12T03:44:45.117Z,94.80
2018-05-12T03:47:13.375Z,94.80
2018-05-12T03:49:42.449Z,94.70
2018-05-12T03:52:10.832Z,94.70
2018-05-12T03:54:39.176Z,94.60
2018-05-12T03:57:07.442Z,94.50
2018-05-12T03:59:35.695Z,94.30
2018-05-12T04:02:03.952Z,94.20
2018-05-12T04:04:44.880Z,93.70
2018-05-12T04:07:25.788Z,93.70
2018-05-12T04:10:06.713Z,93.60
2018-05-12T04:12:38.693Z,93.50
2018-05-12T04:15:06.953Z,93.50
2018-05-12T04:17:35.217Z,93.50
2018-05-12T04:20:03.473Z,93.50
2018-05-12T04:22:31.742Z,93.70
2018-05-12T04:24:59.996Z,93.60
2018-05-12T04:27:29.016Z,93.40
2018-05-12T04:29:57.325Z,93.30
2018-05-12T04:32:25.597Z,93.10
2018-05-12T04:34:53.845Z,93.00
2018-05-12T04:37:22.152Z,93.00
2018-05-12T04:39:50.395Z,92.80
2018-05-12T04:42:18.711Z,92.50
2018-05-12T04:44:46.970Z,92.20
2018-05-12T04:47:15.239Z,92.00
2018-05-12T04:49:44.732Z,91.80
2018-05-12T04:52:13.736Z,91.80
2018-05-12T04:54:42.015Z,91.80
2018-05-12T04:57:10.297Z,92.00
2018-05-12T04:59:38.553Z,92.20
2018-05-12T05:02:06.878Z,92.60
2018-05-12T05:04:35.120Z,92.70
2018-05-12T05:07:03.375Z,92.90
2018-05-12T05:09:31.619Z,93.00
2018-05-12T05:12:00.654Z,93.20
2018-05-12T05:14:28.972Z,93.20
2018-05-12T05:16:57.322Z,93.00
2018-05-12T05:19:25.626Z,92.70
2018-05-12T05:21:53.850Z,91.50
2018-05-12T05:24:22.152Z,91.00
2018-05-12T05:26:50.411Z,90.80
2018-05-12T05:29:18.663Z,90.60
2018-05-12T05:31:46.965Z,91.00
2018-05-12T05:34:15.243Z,91.10
2018-05-12T05:36:43.503Z,90.90
2018-05-12T05:39:11.799Z,90.90
2018-05-12T05:41:40.120Z,90.10
2018-05-12T05:44:08.349Z,86.40
2018-05-12T05:46:36.637Z,84.00
2018-05-12T05:49:04.996Z,82.50
2018-05-12T05:51:33.280Z,79.40
2018-05-12T05:54:01.534Z,77.30
2018-05-12T05:56:29.807Z,73.00
2018-05-12T05:58:58.449Z,70.30
2018-05-12T06:01:26.681Z,69.20
2018-05-12T06:03:54.941Z,67.50
2018-05-12T06:06:23.252Z,70.20
2018-05-12T06:08:51.621Z,74.50
2018-05-12T06:11:19.867Z,77.60
2018-05-12T06:13:48.173Z,79.00
2018-05-12T06:16:16.439Z,79.90
2018-05-12T06:18:44.709Z,82.40
2018-05-12T06:21:13.005Z,85.50
2018-05-12T06:23:41.274Z,88.60
2018-05-12T06:26:09.519Z,89.70
2018-05-12T06:28:37.833Z,90.00
2018-05-12T06:31:06.087Z,88.70
2018-05-12T06:33:34.359Z,87.90
2018-05-12T06:36:02.650Z,88.80
2018-05-12T06:38:30.937Z,88.30
2018-05-12T06:40:59.189Z,89.30
2018-05-12T06:43:27.573Z,89.00
2018-05-12T06:45:55.848Z,89.10
2018-05-12T06:48:24.109Z,89.50
2018-05-12T06:50:52.404Z,88.40
2018-05-12T06:53:20.669Z,87.90
2018-05-12T06:55:48.948Z,86.80
2018-05-12T06:58:17.211Z,86.00
2018-05-12T07:00:45.472Z,85.90
2018-05-12T07:03:13.883Z,87.00
2018-05-12T07:05:42.867Z,89.80
2018-05-12T07:08:11.140Z,88.90
2018-05-12T07:10:39.428Z,88.70
2018-05-12T07:13:07.704Z,90.20
2018-05-12T07:15:36.908Z,88.50
2018-05-12T07:18:05.163Z,87.20
2018-05-12T07:20:33.432Z,87.60
2018-05-12T07:23:01.727Z,87.20
2018-05-12T07:25:30.209Z,87.00
2018-05-12T07:27:58.477Z,86.40
2018-05-12T07:30:26.765Z,86.10
2018-05-12T07:32:55.021Z,84.90
2018-05-12T07:35:23.422Z,82.80
2018-05-12T07:37:51.731Z,81.30
2018-05-12T07:40:19.973Z,81.60
2018-05-12T07:42:48.231Z,81.90
2018-05-12T07:45:16.894Z,82.80
2018-05-12T07:47:46.484Z,84.20
2018-05-12T07:50:14.792Z,84.20
2018-05-12T07:52:43.055Z,85.00
2018-05-12T07:55:11.347Z,84.40
2018-05-12T07:57:39.733Z,84.30
2018-05-12T08:00:07.980Z,83.80
2018-05-12T08:02:36.233Z,83.10
2018-05-12T08:05:05.548Z,86.10
2018-05-12T08:07:33.818Z,86.20
2018-05-12T08:10:02.135Z,87.60
2018-05-12T08:12:30.392Z,89.20
2018-05-12T08:14:58.685Z,88.60
2018-05-12T08:17:26.947Z,88.60
2018-05-12T08:19:55.203Z,88.90
2018-05-12T08:22:23.507Z,89.00
2018-05-12T08:24:51.788Z,89.00
2018-05-12T08:27:20.045Z,87.80
2018-05-12T08:29:48.815Z,88.10
2018-05-12T08:32:17.076Z,88.70
2018-05-12T08:34:46.123Z,87.90
2018-05-12T08:37:14.379Z,87.90
2018-05-12T08:39:42.672Z,87.80
2018-05-12T08:42:10.923Z,87.30
2018-05-12T08:44:39.222Z,88.10
2018-05-12T08:47:07.487Z,87.20
2018-05-12T08:49:35.736Z,87.30
2018-05-12T08:52:04.013Z,86.80
2018-05-12T08:54:32.321Z,87.40
2018-05-12T08:57:00.609Z,86.70
2018-05-12T08:59:28.971Z,85.70
2018-05-12T09:01:57.248Z,84.40
2018-05-12T09:04:25.541Z,82.10
2018-05-12T09:06:53.791Z,80.60
2018-05-12T09:09:24.029Z,80.30
2018-05-12T09:11:52.301Z,78.90
2018-05-12T09:14:20.591Z,75.80
2018-05-12T09:16:48.866Z,73.60
2018-05-12T09:19:17.280Z,75.00
2018-05-12T09:21:45.541Z,74.00
2018-05-12T09:24:13.977Z,75.40
2018-05-12T09:26:42.261Z,76.50
2018-05-12T09:29:10.503Z,78.90
2018-05-12T09:31:38.759Z,80.80
2018-05-12T09:34:07.780Z,83.70
2018-05-12T09:36:36.044Z,83.70
2018-05-12T09:39:04.309Z,84.90
2018-05-12T09:41:33.338Z,85.90
2018-05-12T09:44:01.601Z,85.90
2018-05-12T09:46:30.754Z,85.30
2018-05-12T09:48:59.784Z,83.90
2018-05-12T09:51:28.079Z,83.90
2018-05-12T09:53:56.335Z,83.70
2018-05-12T09:56:24.583Z,83.10
2018-05-12T09:58:53.603Z,79.30
2018-05-12T10:01:21.895Z,79.30
2018-05-12T10:03:50.177Z,78.00
2018-05-12T10:06:18.451Z,75.60
2018-05-12T10:08:46.715Z,74.60
2018-05-12T10:11:14.995Z,74.90
2018-05-12T10:13:43.257Z,74.80
2018-05-12T10:16:12.478Z,77.40
2018-05-12T10:18:40.743Z,78.30
2018-05-12T10:21:09.033Z,76.80
2018-05-12T10:23:37.291Z,75.60
2018-05-12T10:26:05.611Z,75.00
2018-05-12T10:28:33.844Z,75.80
2018-05-12T10:31:02.129Z,75.60
2018-05-12T10:33:30.396Z,73.40
2018-05-12T10:35:58.652Z,73.10
2018-05-12T10:38:27.295Z,72.40
2018-05-12T10:40:55.530Z,72.30
2018-05-12T10:43:23.787Z,71.80
2018-05-12T10:45:52.035Z,71.00
2018-05-12T10:48:21.063Z,74.60
2018-05-12T10:50:49.316Z,74.50
2018-05-12T10:53:17.590Z,75.00
2018-05-12T10:55:46.621Z,73.60
2018-05-12T10:58:14.901Z,73.60
2018-05-12T11:00:43.157Z,71.90
2018-05-12T11:03:11.588Z,71.60
2018-05-12T11:05:39.829Z,70.70
2018-05-12T11:08:08.275Z,71.30
2018-05-12T11:10:37.275Z,71.50
2018-05-12T11:13:05.577Z,71.50
2018-05-12T11:15:33.883Z,71.30
2018-05-12T11:18:02.216Z,71.50
2018-05-12T11:20:30.471Z,71.20
2018-05-12T11:22:58.771Z,70.60
2018-05-12T11:25:27.035Z,70.20
2018-05-12T11:27:56.287Z,71.10
2018-05-12T11:30:24.633Z,71.30
2018-05-12T11:32:53.167Z,69.70
2018-05-12T11:35:22.209Z,72.30
2018-05-12T11:37:50.452Z,72.30
2018-05-12T11:40:18.744Z,72.40
2018-05-12T11:42:47.473Z,72.30
2018-05-12T11:45:15.807Z,71.20
2018-05-12T11:47:44.093Z,71.00
2018-05-12T11:50:12.504Z,72.70
2018-05-12T11:52:40.739Z,72.10
2018-05-12T11:55:09.157Z,72.50
2018-05-12T11:57:37.380Z,69.10
2018-05-12T12:00:05.664Z,69.70
2018-05-12T12:02:34.885Z,70.80
2018-05-12T12:05:03.112Z,71.20
2018-05-12T12:07:31.416Z,70.50
2018-05-12T12:09:59.689Z,70.40
2018-05-12T12:12:27.927Z,69.80
2018-05-12T12:14:56.960Z,69.30
2018-05-12T12:17:25.225Z,69.20
2018-05-12T12:19:53.475Z,68.50
2018-05-12T12:22:21.737Z,67.70
2018-05-12T12:24:50.789Z,67.50
2018-05-12T12:27:19.070Z,67.40
2018-05-12T12:29:47.327Z,69.10
2018-05-12T12:32:15.579Z,70.30
2018-05-12T12:34:43.889Z,71.00
2018-05-12T12:37:12.165Z,69.80
2018-05-12T12:39:40.441Z,71.10
2018-05-12T12:42:08.702Z,73.00
2018-05-12T12:44:36.957Z,72.10
2018-05-12T12:47:05.269Z,72.50
2018-05-12T12:49:33.513Z,72.00
2018-05-12T12:52:01.764Z,71.60
2018-05-12T12:54:30.784Z,71.60
2018-05-12T12:56:59.035Z,71.60
2018-05-12T12:59:28.055Z,71.60
2018-05-12T13:01:56.538Z,71.50
2018-05-12T13:04:24.825Z,72.00
2018-05-12T13:06:53.094Z,72.40
2018-05-12T13:09:21.353Z,71.90
2018-05-12T13:11:49.611Z,71.50
2018-05-12T13:14:19.362Z,70.90
2018-05-12T13:16:47.746Z,70.80
2018-05-12T13:19:16.016Z,71.20
2018-05-12T13:21:44.304Z,70.70
2018-05-12T13:24:12.659Z,72.10
2018-05-12T13:26:40.915Z,70.90
2018-05-12T13:29:09.167Z,70.30
2018-05-12T13:31:38.210Z,69.70
2018-05-12T13:34:06.461Z,69.70
2018-05-12T13:36:34.722Z,70.80
2018-05-12T13:39:03.403Z,72.10
2018-05-12T13:41:32.416Z,72.00
2018-05-12T13:44:00.687Z,72.00
2018-05-12T13:46:29.713Z,73.00
2018-05-12T13:48:57.959Z,72.90
2018-05-12T13:51:26.262Z,73.80
2018-05-12T13:53:54.524Z,74.10
2018-05-12T13:56:22.778Z,71.40
2018-05-12T13:58:51.791Z,70.50
2018-05-12T14:01:20.191Z,68.20
2018-05-12T14:03:48.451Z,69.20
2018-05-12T14:06:16.704Z,67.50
2018-05-12T14:08:45.367Z,68.60
2018-05-12T14:11:14.545Z,69.50
2018-05-12T14:13:42.779Z,69.50
2018-05-12T14:16:11.059Z,69.90
2018-05-12T14:18:39.337Z,69.00
2018-05-12T14:21:08.026Z,68.50
2018-05-12T14:23:36.396Z,69.00
2018-05-12T14:26:04.643Z,69.80
2018-05-12T14:28:32.984Z,66.20
2018-05-12T14:31:01.221Z,68.00
2018-05-12T14:33:29.480Z,66.00
2018-05-12T14:35:57.810Z,67.80
2018-05-12T14:38:26.054Z,68.40
2018-05-12T14:40:54.326Z,68.90
2018-05-12T14:43:22.576Z,69.40
2018-05-12T14:45:50.925Z,69.40
2018-05-12T14:48:19.144Z,69.80
2018-05-12T14:50:47.397Z,70.30
2018-05-12T14:53:15.696Z,68.00
2018-05-12T14:55:43.985Z,68.90
2018-05-12T14:58:12.239Z,68.10
2018-05-12T15:00:40.532Z,67.90
2018-05-12T15:03:08.944Z,68.10
2018-05-12T15:05:37.168Z,69.80
2018-05-12T15:08:05.420Z,67.90
2018-05-12T15:10:33.677Z,68.10
2018-05-12T15:13:02.692Z,67.60
2018-05-12T15:15:31.001Z,67.70
2018-05-12T15:17:59.265Z,65.90
2018-05-12T15:20:27.511Z,66.00
2018-05-12T15:22:55.825Z,65.50
2018-05-12T15:25:24.105Z,66.90
2018-05-12T15:27:52.360Z,67.90
2018-05-12T15:30:20.631Z,67.70
2018-05-12T15:32:48.878Z,69.50
2018-05-12T15:35:17.897Z,67.50
2018-05-12T15:37:46.157Z,67.50
2018-05-12T15:40:14.409Z,67.30
2018-05-12T15:42:43.420Z,67.10
2018-05-12T15:45:12.465Z,65.00
2018-05-12T15:47:40.869Z,64.90
2018-05-12T15:50:09.104Z,65.40
2018-05-12T15:52:37.348Z,66.10
2018-05-12T15:55:05.651Z,67.20
2018-05-12T15:57:33.928Z,67.70
2018-05-12T16:00:02.209Z,67.20
2018-05-12T16:02:30.486Z,67.40
2018-05-12T16:04:58.745Z,68.10
2018-05-12T16:07:27.033Z,67.10
2018-05-12T16:09:55.293Z,64.00
2018-05-12T16:12:23.608Z,63.70
2018-05-12T16:14:52.573Z,65.70
2018-05-12T16:17:20.858Z,65.70
2018-05-12T16:19:49.129Z,65.60
2018-05-12T16:22:17.405Z,65.60
2018-05-12T16:24:45.658Z,66.00
2018-05-12T16:27:13.952Z,67.00
2018-05-12T16:29:42.227Z,67.30
2018-05-12T16:32:10.484Z,66.90
2018-05-12T16:34:38.744Z,66.60
2018-05-12T16:37:07.768Z,66.40
2018-05-12T16:39:36.054Z,66.30
2018-05-12T16:42:04.309Z,65.80
2018-05-12T16:44:32.571Z,66.30
2018-05-12T16:47:00.871Z,66.50
2018-05-12T16:49:29.147Z,67.10
2018-05-12T16:51:57.403Z,67.20
2018-05-12T16:54:25.696Z,67.40
2018-05-12T16:56:53.999Z,68.70
2018-05-12T16:59:22.225Z,68.70
2018-05-12T17:01:50.532Z,68.90
2018-05-12T17:04:18.790Z,68.80
2018-05-12T17:06:47.075Z,68.30
2018-05-12T17:09:15.361Z,69.60
2018-05-12T17:11:43.617Z,70.00
2018-05-12T17:14:11.863Z,70.30
2018-05-12T17:16:40.883Z,70.40
2018-05-12T17:19:09.127Z,70.30
2018-05-12T17:21:38.159Z,69.10
2018-05-12T17:24:06.446Z,68.90
2018-05-12T17:26:35.367Z,69.60
2018-05-12T17:29:03.702Z,69.30
2018-05-12T17:31:31.964Z,70.70
2018-05-12T17:34:00.263Z,70.20
2018-05-12T17:36:28.637Z,70.80
2018-05-12T17:38:56.890Z,71.20
2018-05-12T17:41:25.151Z,71.40
2018-05-12T17:43:53.465Z,71.20
2018-05-12T17:46:21.740Z,71.30
2018-05-12T17:48:50.018Z,70.80
2018-05-12T17:51:18.359Z,71.20
2018-05-12T17:53:46.652Z,71.00
2018-05-12T17:56:14.952Z,71.70
2018-05-12T17:58:43.225Z,71.00
2018-05-12T18:01:11.491Z,71.80
2018-05-12T18:03:39.739Z,71.40
2018-05-12T18:06:08.005Z,71.70
2018-05-12T18:08:37.015Z,72.00
2018-05-12T18:11:05.307Z,71.90
2018-05-12T18:13:33.556Z,72.00
2018-05-12T18:16:01.859Z,72.30
2018-05-12T18:18:30.145Z,72.80
2018-05-12T18:20:58.463Z,72.70
2018-05-12T18:23:26.686Z,73.00
2018-05-12T18:25:54.963Z,72.90
2018-05-12T18:28:23.219Z,73.30
2018-05-12T18:30:51.516Z,73.60
2018-05-12T18:33:19.887Z,73.70
2018-05-12T18:35:48.139Z,73.30
2018-05-12T18:38:16.391Z,74.20
2018-05-12T18:40:45.414Z,74.00
2018-05-12T18:43:13.716Z,73.90
2018-05-12T18:45:42.000Z,74.00
2018-05-12T18:48:10.247Z,73.40
2018-05-12T18:50:38.566Z,73.70
2018-05-12T18:53:06.916Z,73.50
2018-05-12T18:55:35.170Z,73.60
2018-05-12T18:58:03.473Z,74.20
2018-05-12T19:00:31.739Z,74.00
2018-05-12T19:03:00.009Z,74.20
2018-05-12T19:05:28.265Z,74.50
2018-05-12T19:07:56.520Z,74.60
2018-05-12T19:10:25.556Z,75.30
2018-05-12T19:12:53.830Z,75.20
2018-05-12T19:15:22.081Z,75.60
2018-05-12T19:17:50.385Z,76.00
2018-05-12T19:20:18.660Z,75.80
2018-05-12T19:22:46.931Z,75.30
2018-05-12T19:25:15.179Z,75.40
2018-05-12T19:27:43.442Z,74.70
2018-05-12T19:30:12.479Z,75.30
2018-05-12T19:32:40.747Z,75.20
2018-05-12T19:35:09.853Z,75.20
2018-05-12T19:37:39.133Z,75.30
2018-05-12T19:40:07.389Z,75.50
2018-05-12T19:42:35.700Z,75.70
2018-05-12T19:45:03.947Z,76.00
2018-05-12T19:47:32.230Z,76.10
2018-05-12T19:50:00.637Z,75.90
2018-05-12T19:52:28.910Z,76.10
2018-05-12T19:54:57.170Z,76.20
2018-05-12T19:57:25.421Z,76.40
2018-05-12T19:59:53.735Z,76.70
2018-05-12T20:02:21.988Z,76.80
2018-05-12T20:04:51.103Z,77.10
2018-05-12T20:07:19.824Z,77.30
2018-05-12T20:09:48.145Z,78.30
2018-05-12T21:34:20.761Z,78.60
2018-05-12T21:36:49.022Z,78.60
2018-05-12T21:39:17.277Z,78.80
2018-05-12T21:41:46.296Z,76.60
2018-05-12T21:44:14.662Z,76.60
2018-05-12T21:46:42.865Z,76.40
2018-05-12T21:49:11.124Z,76.00
2018-05-12T21:51:39.403Z,76.00
2018-05-12T21:54:07.675Z,76.00
2018-05-12T21:56:35.933Z,76.00
2018-05-12T21:59:04.260Z,76.10
2018-05-12T22:01:32.471Z,76.50
2018-05-12T22:04:02.652Z,76.70
2018-05-12T22:06:30.889Z,76.70
2018-05-12T22:08:59.136Z,76.90
2018-05-12T22:11:28.167Z,77.50
2018-05-12T22:13:56.420Z,77.60
2018-05-12T22:16:24.736Z,78.20
2018-05-12T22:18:52.992Z,78.40
2018-05-12T22:21:21.244Z,78.50
2018-05-12T22:23:49.492Z,78.80
2018-05-12T22:26:17.755Z,79.40
2018-05-12T22:28:46.095Z,79.90
2018-05-12T22:31:14.346Z,79.60
2018-05-12T22:33:42.591Z,79.70
2018-05-12T22:36:10.854Z,80.00
2018-05-12T22:38:39.105Z,81.10
2018-05-12T22:41:07.359Z,81.00
2018-05-12T22:43:35.660Z,81.50
2018-05-12T22:46:03.912Z,81.50
2018-05-12T22:48:32.169Z,82.20
2018-05-12T22:51:00.481Z,82.40
2018-05-12T22:53:28.749Z,82.00
2018-05-12T22:55:57.001Z,82.20
2018-05-12T22:58:25.309Z,82.50
2018-05-12T23:00:53.575Z,82.80
2018-05-12T23:03:21.831Z,83.30
2018-05-12T23:05:50.704Z,83.80
2018-05-12T23:08:18.979Z,84.30
2018-05-12T23:10:48.025Z,85.10
2018-05-12T23:13:16.349Z,85.10
2018-05-12T23:15:45.358Z,86.20
2018-05-12T23:18:13.620Z,86.20
2018-05-12T23:20:42.656Z,86.30
2018-05-12T23:23:10.911Z,86.20
2018-05-12T23:25:39.210Z,86.50
2018-05-12T23:28:07.471Z,86.20
2018-05-12T23:30:35.757Z,86.30
2018-05-12T23:33:04.023Z,86.40
2018-05-12T23:35:32.267Z,86.80
2018-05-12T23:38:00.579Z,86.90
2018-05-12T23:40:28.833Z,87.60
2018-05-12T23:42:57.123Z,88.00
2018-05-12T23:45:25.377Z,88.40
2018-05-12T23:47:53.646Z,88.80
2018-05-12T23:50:22.651Z,89.10
2018-05-12T23:52:50.911Z,89.10
2018-05-12T23:55:19.172Z,89.20
2018-05-12T23:57:48.196Z,90.00
